• Join FlightAware (Why Join?)
  • Login
  • US Flag 
12:48AM EDT


 

Airport Tracker/Info


-or-


 

Live Flight TrackerFlight Track Log ✈ SWA378 ✈ 07-Jun-2013 ✈ KSJC - KONT

Flight Track Log - Related Links

Times and Time Zones

All times are in EDT time to prevent confusion due to time zone crossing. See the SWA378 flight status page for this flight to view local times or setup timezone preferences in your user account.

Time Position Orientation Groundspeed Altitude Reporting Facility
EDT Latitude Longitude Course Direction KTS MPH feet Rate Location/Type
11:11AM 37.3833 -121.9500 332° Northwest 165 190 1,200  Level Northern Cal TRACON
11:12AM 37.4333 -121.9833 332° Northwest 216 249 3,100 1,260 Climbing Northern Cal TRACON
11:14AM 37.3808 -121.8442 115° Southeast 250 288 5,200 1,620 Climbing Oakland Center
11:15AM 37.3219 -121.7808 139° Southeast 262 302 8,100 2,760 Climbing Oakland Center
11:16AM 37.2631 -121.7125 137° Southeast 286 329 10,900 2,400 Climbing Oakland Center
11:18AM 37.1933 -121.6344 138° Southeast 337 388 13,100 2,580 Climbing Oakland Center
11:19AM 37.1231 -121.5536 137° Southeast 343 395 16,200 2,700 Climbing Oakland Center
11:20AM 37.0400 -121.4647 139° Southeast 348 400 18,700 2,160 Climbing Oakland Center
11:21AM 36.9614 -121.3783 139° Southeast 375 432 20,700 1,980 Climbing Oakland Center
11:22AM 36.8808 -121.2886 138° Southeast 385 443 22,800 1,920 Climbing Oakland Center
11:23AM 36.7944 -121.1989 140° Southeast 392 451 24,700 1,800 Climbing Oakland Center
11:24AM 36.7089 -121.1044 138° Southeast 408 470 26,500 1,620 Climbing Oakland Center
11:25AM 36.6214 -121.0111 139° Southeast 414 476 28,100 1,500 Climbing Oakland Center
11:26AM 36.5317 -120.9136 139° Southeast 427 491 29,600 1,620 Climbing Oakland Center
11:27AM 36.4406 -120.8164 139° Southeast 431 496 31,400 1,560 Climbing Oakland Center
11:28AM 36.3700 -120.7019 127° Southeast 417 480 32,900 1,440 Climbing Oakland Center
11:29AM 36.2828 -120.5656 128° Southeast 423 487 34,400 1,380 Climbing Oakland Center
11:30AM 36.2103 -120.4528 129° Southeast 419 482 35,800 1,260 Climbing Oakland Center
11:31AM 36.1389 -120.3408 128° Southeast 415 478 37,000 540 Climbing Oakland Center
11:32AM 36.0678 -120.2311 129° Southeast 409 471 37,000  Level Oakland Center
11:33AM 35.9964 -120.1206 129° Southeast 410 472 37,000  Level Oakland Center
11:34AM 35.9253 -120.0089 128° Southeast 411 473 37,000  Level Oakland Center
11:35AM 35.8517 -119.8958 129° Southeast 417 480 37,000  Level Oakland Center
11:36AM 35.7786 -119.7839 129° Southeast 419 482 37,000  Level Oakland Center
11:37AM 35.7022 -119.6675 129° Southeast 430 495 37,000  Level Oakland Center
11:38AM 35.6267 -119.5511 129° Southeast 434 499 37,000  Level Oakland Center
11:39AM 35.5361 -119.4108 128° Southeast 437 503 37,000  Level Los Angeles Center
11:40AM 35.4583 -119.2933 129° Southeast 440 506 37,000  Level Los Angeles Center
11:41AM 35.3653 -119.1514 129° Southeast 443 510 37,000  Level Los Angeles Center
11:42AM 35.2869 -119.0322 129° Southeast 446 513 37,000  Level Los Angeles Center
11:43AM 35.2078 -118.9139 129° Southeast 449 517 37,000 -300 Level Los Angeles Center
11:44AM 35.1269 -118.7964 130° Southeast 450 518 36,500 -1,740 Descending Los Angeles Center
11:45AM 35.0475 -118.6769 129° Southeast 453 521 33,400 -2,820 Descending Los Angeles Center
11:46AM 34.9706 -118.5628 129° Southeast 442 509 30,700 -2,280 Descending Los Angeles Center
11:47AM 34.8989 -118.4569 130° Southeast 413 475 28,800 -2,280 Descending Los Angeles Center
11:48AM 34.8111 -118.3272 129° Southeast 412 474 26,100 -2,340 Descending Los Angeles Center
11:49AM 34.7422 -118.2275 130° Southeast 397 457 24,000 -1,380 Descending Los Angeles Center
11:51AM 34.6767 -118.1328 130° Southeast 377 434 23,300 -960 Descending Los Angeles Center
11:52AM 34.6167 -118.0353 127° Southeast 367 422 22,100 -1,140 Descending Los Angeles Center
11:53AM 34.5692 -117.9292 119° Southeast 363 418 21,000 -1,500 Descending Los Angeles Center
11:54AM 34.5117 -117.8042 119° Southeast 356 410 19,000 -1,800 Descending Los Angeles Center
11:55AM 34.4658 -117.7053 119° Southeast 341 392 17,400 -1,260 Descending Los Angeles Center
11:56AM 34.4233 -117.6122 119° Southeast 319 367 16,500 -1,200 Descending Los Angeles Center
11:57AM 34.3797 -117.5150 119° Southeast 292 336 15,000 -1,620 Descending Los Angeles Center
11:58AM 34.3417 -117.4322 119° Southeast 283 326 13,200 -1,860 Descending Los Angeles Center
11:59AM 34.3028 -117.3497 120° Southeast 280 322 11,200 -1,860 Descending Los Angeles Center
12:00PM 34.2447 -117.2881 139° Southeast 284 327 9,400 -1,560 Descending Los Angeles Center
12:01PM 34.1739 -117.2472 154° Southeast 280 322 8,000 -1,140 Descending Los Angeles Center
12:02PM 34.1067 -117.2344 171° South 247 284 7,100 -1,500 Descending Los Angeles Center
12:02PM 34.0833 -117.2500 209° Southwest 257 296 6,100 -2,100 Descending Southern California TRACON
12:03PM 34.0667 -117.3333 256° West 267 307 4,200 -1,080 Descending Southern California TRACON
12:04PM 34.0500 -117.4167 256° West 220 253 4,000 -900 Descending Southern California TRACON
12:05PM 34.0500 -117.4833 270° West 199 229 2,600 -1,140 Descending Southern California TRACON
12:06PM 34.0500 -117.5333 270° West 146 168 1,800 -600 Descending Southern California TRACON
12:08PM 34.0581 -117.6219 276° West 159 183 1,000 -420 Descending Los Angeles Center
12:10PM 34.0500 -117.6000 270° West  Level FlightAware Approximate